Wetterdaten: November 2011
Datum Temp Feuchte Luftdruck Regen Wind Richtung Sonnenschein UV Solar Windben
01.11.2011 8,1 C 95 % 1015,4 hPa 0,2 l/m 5,7 km/h S-SO 5,08 h 1,0 UV-I 165 W/m 9,6 km/h
02.11.2011 9,1 C 94 % 1012,7 hPa 0,0 l/m 9,6 km/h S-SO 0,42 h 0,9 UV-I 83 W/m 18,1 km/h
03.11.2011 11,4 C 83 % 1006,1 hPa 0,2 l/m 5,6 km/h S-SO 4,33 h 1,0 UV-I 179 W/m 10,5 km/h
04.11.2011 11,0 C 80 % 1006,0 hPa 0,0 l/m 9,4 km/h S-SO 2,33 h 0,9 UV-I 129 W/m 13,3 km/h
05.11.2011 9,3 C 84 % 1007,9 hPa 0,0 l/m 4,7 km/h S-SO 2,17 h 0,8 UV-I 123 W/m 10,1 km/h
06.11.2011 7,8 C 92 % 1015,5 hPa 0,0 l/m 1,5 km/h N-NO 6,00 h 1,0 UV-I 180 W/m 5,7 km/h
07.11.2011 5,9 C 97 % 1018,8 hPa 0,2 l/m 0,5 km/h N-NO 0,00 h 0,5 UV-I 40 W/m 4,8 km/h
08.11.2011 5,9 C 95 % 1019,0 hPa 0,2 l/m 2,6 km/h S-SO 2,35 h 0,7 UV-I 110 W/m 7,3 km/h
09.11.2011 6,0 C 92 % 1022,1 hPa 0,2 l/m 1,9 km/h S 6,42 h 0,9 UV-I 175 W/m 2,4 km/h
10.11.2011 4,1 C 96 % 1023,8 hPa 0,2 l/m 4,5 km/h SO 0,00 h 0,5 UV-I 40 W/m 20,5 km/h
11.11.2011 2,2 C 88 % 1026,1 hPa 0,0 l/m 9,7 km/h SO 5,33 h 0,8 UV-I 159 W/m 22,9 km/h
12.11.2011 3,1 C 92 % 1032,3 hPa 0,0 l/m 3,1 km/h S-SO 6,17 h 0,8 UV-I 168 W/m 6,0 km/h
13.11.2011 3,2 C 90 % 1032,2 hPa 0,0 l/m 2,5 km/h SO 5,92 h 0,9 UV-I 178 W/m 3,2 km/h
14.11.2011 2,5 C 84 % 1026,1 hPa 0,2 l/m 1,5 km/h S 5,17 h 0,8 UV-I 155 W/m 5,6 km/h
15.11.2011 1,3 C 87 % 1023,5 hPa 0,0 l/m 2,9 km/h SO 5,92 h 0,9 UV-I 156 W/m 9,6 km/h
16.11.2011 -0,5 C 93 % 1022,8 hPa 0,0 l/m 8,4 km/h S-SO 3,75 h 0,9 UV-I 131 W/m 19,7 km/h
17.11.2011 2,8 C 89 % 1023,2 hPa 0,0 l/m 1,0 km/h S-SO 5,50 h 0,8 UV-I 154 W/m 3,6 km/h
18.11.2011 5,8 C 96 % 1023,0 hPa 0,2 l/m 0,3 km/h S-SW 0,00 h 0,5 UV-I 47 W/m 2,8 km/h
19.11.2011 6,7 C 89 % 1021,3 hPa 0,0 l/m 2,0 km/h S 1,00 h 0,6 UV-I 89 W/m 8,8 km/h
20.11.2011 4,3 C 93 % 1020,5 hPa 0,0 l/m 0,1 km/h SO 1,33 h 0,6 UV-I 89 W/m 1,2 km/h
21.11.2011 4,1 C 90 % 1017,7 hPa 0,0 l/m 0,1 km/h O-SO 5,42 h 0,7 UV-I 144 W/m 1,2 km/h
22.11.2011 4,3 C 91 % 1020,5 hPa 0,2 l/m 0,0 km/h W-NW 5,17 h 0,7 UV-I 139 W/m 0,0 km/h
23.11.2011 6,4 C 96 % 1027,7 hPa 0,4 l/m 0,0 km/h S-SW 3,18 h 0,6 UV-I 112 W/m 0,8 km/h
24.11.2011 5,4 C 92 % 1030,3 hPa 0,2 l/m 0,1 km/h S-SW 2,17 h 0,6 UV-I 105 W/m 1,6 km/h
25.11.2011 4,9 C 91 % 1024,5 hPa 6,0 l/m 9,6 km/h S 1,18 h 0,6 UV-I 95 W/m 19,8 km/h
26.11.2011 6,9 C 86 % 1024,8 hPa 0,6 l/m 10,6 km/h S-SW 0,42 h 0,6 UV-I 69 W/m 27,0 km/h
27.11.2011 6,6 C 89 % 1019,5 hPa 0,4 l/m 12,1 km/h S-SW 0,00 h 0,0 UV-I 19 W/m 34,2 km/h
28.11.2011 3,2 C 89 % 1025,7 hPa 0,2 l/m 6,8 km/h S 4,83 h 0,6 UV-I 120 W/m 9,6 km/h
29.11.2011 1,8 C 95 % 1017,0 hPa 0,2 l/m 8,0 km/h S 0,83 h 0,6 UV-I 65 W/m 12,9 km/h
30.11.2011 4,2 C 88 % 1025,4 hPa 0,2 l/m 1,3 km/h S-SW 4,58 h 0,6 UV-I 122 W/m 7,7 km/h
Min-Datum 16.11.11 14.11.11 04.11.11 17 Tage 01.11.11 - - - - 01.11.11
Min-Zeit 02:20 12:30 06:30 - 02:05 - - - - 02:05
Minimum -1,8 C 54 % 1002,8 hPa - 0,0 km/h - - - - 0,0 km/h
Max-Datum 06.11.11 01.11.11 13.11.11 25.11.11 27.11.11 - 09.11.11 03.11.11 03.11.11 27.11.11
Max-Zeit 12:40 04:00 00:05 15:30 12:40 - 15:20 11:50 11:35 13:25
Maximum 15,9 C 100 % 1034,2 hPa 6,0 l/m 26,9 km/h
S-SW
- 6,33 h 1,6 UV-I 487 W/m 49,9 km/h
S-SW
Durchschnitt 5,3 C 90 % 1021,0 hPa #10,0 l/m 4,2 km/h S-SO #96:58 h 0,7 UV-I 118 W/m 10,0 km/h

Durchschnitt Minimum Temp.2,3 C
Durchschnitt Maximum Temp.9,2 C